This is the latest recevied weather packets stored in our database for station/object KT5AL. If no packets are shown the sender has not sent any weather packets the latest 1 day(s).
| Time | Temp. | Humidity | Pressure | Rain* | Wind** | Luminosity | Snow |
|---|---|---|---|---|---|---|---|
| 1836274680 | 25.56° C | 72% | 1015.1 hPa | 0 mm | 1.79 m/s, 157° | - | - |
| 1836274529 | 25.56° C | 72% | 1015.1 hPa | 0 mm | 2.24 m/s, 157° | - | - |
| 1836274378 | 25.56° C | 72% | 1015.1 hPa | 0 mm | 1.79 m/s, 157° | - | - |
| 1836274226 | 25.56° C | 72% | 1015.1 hPa | 0 mm | 2.24 m/s, 157° | - | - |
| 1836274082 | 25.56° C | 72% | 1015.4 hPa | 0 mm | 1.79 m/s, 157° | - | - |
| 1778051103 | 13.33° C | 90% | 1012.7 hPa | 0 mm | 4.47 m/s, 22° | - | - |
| 1778050807 | 13.33° C | 90% | 1012.7 hPa | 0 mm | 3.58 m/s, 22° | - | - |
| 1778050503 | 13.33° C | 90% | 1012.7 hPa | 0 mm | 2.68 m/s, 360° | - | - |
| 1778050207 | 13.33° C | 89% | 1012.7 hPa | 0 mm | 2.68 m/s, 22° | - | - |
| 1778049904 | 13.33° C | 89% | 1013.1 hPa | 0 mm | 3.58 m/s, 22° | - | - |
| 1778049608 | 13.33° C | 89% | 1013.1 hPa | 0 mm | 4.02 m/s, 22° | - | - |
| 1778049304 | 13.33° C | 89% | 1013.1 hPa | 0 mm | 4.02 m/s, 337° | - | - |
| 1778049008 | 13.33° C | 89% | 1013.1 hPa | 0 mm | 3.58 m/s, 360° | - | - |
| 1778048705 | 13.33° C | 89% | 1013.1 hPa | 0 mm | 2.68 m/s, 337° | - | - |
| 1778048402 | 13.33° C | 89% | 1013.1 hPa | 0 mm | 4.02 m/s, 337° | - | - |
| 1778048105 | 13.33° C | 89% | 1012.4 hPa | 0 mm | 3.58 m/s, 45° | - | - |
| 1778047803 | 13.89° C | 89% | 1012.4 hPa | 0 mm | 4.02 m/s, 337° | - | - |
| 1778047514 | 13.89° C | 90% | 1012.4 hPa | 0 mm | 3.58 m/s, 360° | - | - |
| 1778047231 | 13.89° C | 89% | 1012.4 hPa | 0 mm | 2.68 m/s, 360° | - | - |
| 1778046907 | 13.89° C | 89% | 1012.7 hPa | 0 mm | 3.58 m/s, 337° | - | - |
| 1778046605 | 13.89° C | 89% | 1012.7 hPa | 0 mm | 4.47 m/s, 337° | - | - |
| 1778046302 | 13.89° C | 89% | 1012.7 hPa | 0 mm | 3.58 m/s, 360° | - | - |
| 1778046005 | 13.89° C | 89% | 1012.7 hPa | 0 mm | 4.47 m/s, 22° | - | - |
| 1778045703 | 13.89° C | 90% | 1012.7 hPa | 0 mm | 4.47 m/s, 337° | - | - |
| 1778045405 | 14.44° C | 92% | 1012.7 hPa | 0 mm | 3.13 m/s, 337° | - | - |
* Rain latest hour (hover to see other rain measurements)
** Current wind speed in m/s (hover to see current wind gust speed)